Yuedian 58 — BYFE — position and weather

sailwx.info

Track history (hours):
 
Tides and Currents Weather Stations Pressure Air Temp Water Temp Dewpoint Dewpoint Depression Visibility Wind Speed Wind Dir Waves Ship Positions

Yuedian 58

Last reported at 2016-Aug-06 03:33 UTC. Time now 2016-Aug-27 15:10 UTC.
Position N 22°05' E 114°21'.
Warning: this ship's position is 21 days out of date.

Length 190 m; draft 6.9 m.

Type: Ship. MMSI: 414008000.

Date/timePositionNaut miles runAvg speedWind from/ knotsBaromVisibWave heightAir tempDewpointWater temp
2016-Aug-06 03:33N 22°05' E 114°21'  
2016-Aug-02 19:24N 21°49' E 114°30'  
2016-Jul-31 06:26N 23°48' E 117°60'1312.2
2016-Jul-31 05:23N 23°54' E 118°12'1012.4
2016-Jul-31 04:33N 23°58' E 118°22'1212.6
2016-Jul-31 03:34N 24°04' E 118°34'  
2016-Jul-28 08:09N 36°50' E 123°16'6311.2
2016-Jul-28 02:32N 37°44' E 122°36'1313.3
2016-Jul-28 01:31N 37°51' E 122°21'1413.4
2016-Jul-28 00:27N 37°58' E 122°05'1112.7
2016-Jul-27 23:34N 38°04' E 121°53'1313.4
2016-Jul-27 22:33N 38°12' E 121°39'1313.2
2016-Jul-27 21:33N 38°19' E 121°25'1313.3
2016-Jul-27 20:33N 38°26' E 121°10'1312.7
2016-Jul-27 19:33N 38°32' E 120°56'9 9.2
2016-Jul-27 18:33N 38°38' E 120°48'1110.7
2016-Jul-27 17:33N 38°48' E 120°42'7913.0
2016-Jul-27 11:30N 39°52' E 119°43'4 4.2
2016-Jul-27 10:28N 39°56' E 119°40'0 0.0
2016-Jul-27 09:28N 39°56' E 119°40'0 0.0
2016-Jul-27 08:28N 39°56' E 119°40'0 0.0
2016-Jul-27 07:28N 39°56' E 119°40'0 0.0
2016-Jul-27 06:28N 39°56' E 119°40'0 0.0
2016-Jul-27 05:22N 39°56' E 119°40'0 0.0
2016-Jul-27 04:28N 39°56' E 119°40'  
Track history (hours):
 
Tides and Currents Weather Stations Pressure Air Temp Water Temp Dewpoint Dewpoint Depression Visibility Wind Speed Wind Dir Waves Ship Positions

Yuedian 58

Last reported at 2016-Aug-06 03:33 UTC. Time now 2016-Aug-27 15:10 UTC.
Position N 22°05' E 114°21'.
Warning: this ship's position is 21 days out of date.

Length 190 m; draft 6.9 m.

Type: Ship. MMSI: 414008000.

Date/timePositionNaut miles runAvg speedWind from/ knotsBaromVisibWave heightAir tempDewpointWater temp
2016-Aug-06 03:33N 22°05' E 114°21'  
2016-Aug-02 19:24N 21°49' E 114°30'  
2016-Jul-31 06:26N 23°48' E 117°60'1312.2
2016-Jul-31 05:23N 23°54' E 118°12'1012.4
2016-Jul-31 04:33N 23°58' E 118°22'1212.6
2016-Jul-31 03:34N 24°04' E 118°34'  
2016-Jul-28 08:09N 36°50' E 123°16'6311.2
2016-Jul-28 02:32N 37°44' E 122°36'1313.3
2016-Jul-28 01:31N 37°51' E 122°21'1413.4
2016-Jul-28 00:27N 37°58' E 122°05'1112.7
2016-Jul-27 23:34N 38°04' E 121°53'1313.4
2016-Jul-27 22:33N 38°12' E 121°39'1313.2
2016-Jul-27 21:33N 38°19' E 121°25'1313.3
2016-Jul-27 20:33N 38°26' E 121°10'1312.7
2016-Jul-27 19:33N 38°32' E 120°56'9 9.2
2016-Jul-27 18:33N 38°38' E 120°48'1110.7
2016-Jul-27 17:33N 38°48' E 120°42'7913.0
2016-Jul-27 11:30N 39°52' E 119°43'4 4.2
2016-Jul-27 10:28N 39°56' E 119°40'0 0.0
2016-Jul-27 09:28N 39°56' E 119°40'0 0.0
2016-Jul-27 08:28N 39°56' E 119°40'0 0.0
2016-Jul-27 07:28N 39°56' E 119°40'0 0.0
2016-Jul-27 06:28N 39°56' E 119°40'0 0.0
2016-Jul-27 05:22N 39°56' E 119°40'0 0.0
2016-Jul-27 04:28N 39°56' E 119°40'  

Dump ship's entire track history